sensor_id;sensor_type;location;lat;lon;timestamp;temperature;humidity
68139;DHT22;54940;50.842;4.410;2022-09-01T00:01:41;20.00;90.20
68139;DHT22;54940;50.842;4.410;2022-09-01T00:04:10;20.10;90.20
68139;DHT22;54940;50.842;4.410;2022-09-01T00:06:37;20.20;89.50
68139;DHT22;54940;50.842;4.410;2022-09-01T00:09:08;20.20;90.00
68139;DHT22;54940;50.842;4.410;2022-09-01T00:11:34;20.10;89.90
68139;DHT22;54940;50.842;4.410;2022-09-01T00:14:01;20.10;89.70
68139;DHT22;54940;50.842;4.410;2022-09-01T00:16:29;20.10;89.20
68139;DHT22;54940;50.842;4.410;2022-09-01T00:18:55;20.10;89.80
68139;DHT22;54940;50.842;4.410;2022-09-01T00:21:25;20.10;89.90
68139;DHT22;54940;50.842;4.410;2022-09-01T00:23:52;20.10;90.20
68139;DHT22;54940;50.842;4.410;2022-09-01T00:26:18;20.20;90.10
68139;DHT22;54940;50.842;4.410;2022-09-01T00:28:44;20.20;90.10
68139;DHT22;54940;50.842;4.410;2022-09-01T00:31:10;20.20;89.90
68139;DHT22;54940;50.842;4.410;2022-09-01T00:33:36;20.30;89.70
68139;DHT22;54940;50.842;4.410;2022-09-01T00:36:03;20.30;89.80
68139;DHT22;54940;50.842;4.410;2022-09-01T00:38:30;20.10;90.00
68139;DHT22;54940;50.842;4.410;2022-09-01T00:40:56;20.10;90.00
68139;DHT22;54940;50.842;4.410;2022-09-01T00:43:49;19.90;89.70
68139;DHT22;54940;50.842;4.410;2022-09-01T00:48:43;19.80;89.20
68139;DHT22;54940;50.842;4.410;2022-09-01T00:51:10;19.80;89.10
68139;DHT22;54940;50.842;4.410;2022-09-01T00:53:37;19.90;89.70
68139;DHT22;54940;50.842;4.410;2022-09-01T00:56:07;19.90;89.70
68139;DHT22;54940;50.842;4.410;2022-09-01T00:58:35;19.70;90.00
68139;DHT22;54940;50.842;4.410;2022-09-01T01:01:04;19.70;89.00
68139;DHT22;54940;50.842;4.410;2022-09-01T01:03:29;19.80;89.90
68139;DHT22;54940;50.842;4.410;2022-09-01T01:05:57;19.80;89.90
68139;DHT22;54940;50.842;4.410;2022-09-01T01:08:30;19.70;89.00
68139;DHT22;54940;50.842;4.410;2022-09-01T01:11:00;19.70;90.00
68139;DHT22;54940;50.842;4.410;2022-09-01T01:13:26;19.70;90.10
68139;DHT22;54940;50.842;4.410;2022-09-01T01:15:53;19.70;90.00
68139;DHT22;54940;50.842;4.410;2022-09-01T01:18:18;19.60;88.70
68139;DHT22;54940;50.842;4.410;2022-09-01T01:20:45;19.50;89.30
68139;DHT22;54940;50.842;4.410;2022-09-01T01:23:39;19.40;89.10
68139;DHT22;54940;50.842;4.410;2022-09-01T01:26:09;19.40;90.10
68139;DHT22;54940;50.842;4.410;2022-09-01T01:28:38;19.40;89.60
68139;DHT22;54940;50.842;4.410;2022-09-01T01:31:17;19.40;90.10
68139;DHT22;54940;50.842;4.410;2022-09-01T01:33:52;19.30;88.90
68139;DHT22;54940;50.842;4.410;2022-09-01T01:36:24;19.20;89.30
68139;DHT22;54940;50.842;4.410;2022-09-01T01:38:58;19.20;88.80
68139;DHT22;54940;50.842;4.410;2022-09-01T01:41:30;19.20;88.10
68139;DHT22;54940;50.842;4.410;2022-09-01T01:43:58;19.10;88.50
68139;DHT22;54940;50.842;4.410;2022-09-01T01:46:25;19.10;89.70
68139;DHT22;54940;50.842;4.410;2022-09-01T01:48:51;19.10;89.20
68139;DHT22;54940;50.842;4.410;2022-09-01T01:51:19;18.90;88.70
68139;DHT22;54940;50.842;4.410;2022-09-01T01:53:46;18.80;89.90
68139;DHT22;54940;50.842;4.410;2022-09-01T01:56:18;18.90;89.00
68139;DHT22;54940;50.842;4.410;2022-09-01T01:58:44;18.90;89.80
68139;DHT22;54940;50.842;4.410;2022-09-01T02:01:10;18.80;90.10
68139;DHT22;54940;50.842;4.410;2022-09-01T02:03:37;18.80;90.00
68139;DHT22;54940;50.842;4.410;2022-09-01T02:06:05;18.60;88.90
68139;DHT22;54940;50.842;4.410;2022-09-01T02:08:33;18.70;90.30
68139;DHT22;54940;50.842;4.410;2022-09-01T02:11:00;18.80;90.40
68139;DHT22;54940;50.842;4.410;2022-09-01T02:13:26;18.80;90.00
68139;DHT22;54940;50.842;4.410;2022-09-01T02:16:01;18.80;90.00
68139;DHT22;54940;50.842;4.410;2022-09-01T02:18:32;18.80;89.60
68139;DHT22;54940;50.842;4.410;2022-09-01T02:21:06;18.90;89.70
68139;DHT22;54940;50.842;4.410;2022-09-01T02:23:48;18.90;89.80
68139;DHT22;54940;50.842;4.410;2022-09-01T02:26:15;18.90;89.60
68139;DHT22;54940;50.842;4.410;2022-09-01T02:28:45;18.90;90.00
68139;DHT22;54940;50.842;4.410;2022-09-01T02:31:13;18.90;90.20
68139;DHT22;54940;50.842;4.410;2022-09-01T02:33:40;18.70;88.80
68139;DHT22;54940;50.842;4.410;2022-09-01T02:36:12;18.80;89.50
68139;DHT22;54940;50.842;4.410;2022-09-01T02:38:39;18.80;89.00
68139;DHT22;54940;50.842;4.410;2022-09-01T02:41:11;18.70;90.20
68139;DHT22;54940;50.842;4.410;2022-09-01T02:43:39;18.60;89.60
68139;DHT22;54940;50.842;4.410;2022-09-01T02:46:05;18.60;89.50
68139;DHT22;54940;50.842;4.410;2022-09-01T02:48:36;18.60;90.00
68139;DHT22;54940;50.842;4.410;2022-09-01T02:51:09;18.60;89.90
68139;DHT22;54940;50.842;4.410;2022-09-01T02:53:36;18.50;89.50
68139;DHT22;54940;50.842;4.410;2022-09-01T02:56:05;18.60;90.10
68139;DHT22;54940;50.842;4.410;2022-09-01T02:58:34;18.60;88.40
68139;DHT22;54940;50.842;4.410;2022-09-01T03:01:14;18.60;89.10
68139;DHT22;54940;50.842;4.410;2022-09-01T03:03:43;18.50;90.00
68139;DHT22;54940;50.842;4.410;2022-09-01T03:06:09;18.60;88.90
68139;DHT22;54940;50.842;4.410;2022-09-01T03:08:37;18.70;89.00
68139;DHT22;54940;50.842;4.410;2022-09-01T03:11:05;18.80;89.90
68139;DHT22;54940;50.842;4.410;2022-09-01T03:13:32;18.80;88.10
68139;DHT22;54940;50.842;4.410;2022-09-01T03:15:57;18.70;88.20
68139;DHT22;54940;50.842;4.410;2022-09-01T03:18:23;18.60;89.50
68139;DHT22;54940;50.842;4.410;2022-09-01T03:20:49;18.70;88.60
68139;DHT22;54940;50.842;4.410;2022-09-01T03:23:17;18.60;89.10
68139;DHT22;54940;50.842;4.410;2022-09-01T03:25:44;18.50;89.80
68139;DHT22;54940;50.842;4.410;2022-09-01T03:28:11;18.50;89.60
68139;DHT22;54940;50.842;4.410;2022-09-01T03:30:38;18.50;90.00
68139;DHT22;54940;50.842;4.410;2022-09-01T03:33:06;18.60;90.00
68139;DHT22;54940;50.842;4.410;2022-09-01T03:35:33;18.60;89.10
68139;DHT22;54940;50.842;4.410;2022-09-01T03:38:00;18.60;89.60
68139;DHT22;54940;50.842;4.410;2022-09-01T03:40:31;18.60;89.00
68139;DHT22;54940;50.842;4.410;2022-09-01T03:43:01;18.70;88.90
68139;DHT22;54940;50.842;4.410;2022-09-01T03:45:28;18.70;89.40
68139;DHT22;54940;50.842;4.410;2022-09-01T03:47:55;18.50;90.00
68139;DHT22;54940;50.842;4.410;2022-09-01T03:50:22;18.50;89.90
68139;DHT22;54940;50.842;4.410;2022-09-01T03:52:49;18.50;89.10
68139;DHT22;54940;50.842;4.410;2022-09-01T03:55:17;18.40;89.30
68139;DHT22;54940;50.842;4.410;2022-09-01T03:57:49;18.30;90.00
68139;DHT22;54940;50.842;4.410;2022-09-01T04:00:16;18.40;90.20
68139;DHT22;54940;50.842;4.410;2022-09-01T04:02:53;18.40;90.20
68139;DHT22;54940;50.842;4.410;2022-09-01T04:05:22;18.40;90.00
68139;DHT22;54940;50.842;4.410;2022-09-01T04:07:50;18.50;90.30
68139;DHT22;54940;50.842;4.410;2022-09-01T04:10:19;18.50;90.00
68139;DHT22;54940;50.842;4.410;2022-09-01T04:12:46;18.50;90.00
68139;DHT22;54940;50.842;4.410;2022-09-01T04:15:14;18.60;90.00
68139;DHT22;54940;50.842;4.410;2022-09-01T04:17:43;18.60;89.90
68139;DHT22;54940;50.842;4.410;2022-09-01T04:20:27;18.50;89.50
68139;DHT22;54940;50.842;4.410;2022-09-01T04:22:54;18.20;90.00
68139;DHT22;54940;50.842;4.410;2022-09-01T04:25:20;18.20;90.50
68139;DHT22;54940;50.842;4.410;2022-09-01T04:27:51;18.30;89.70
68139;DHT22;54940;50.842;4.410;2022-09-01T04:30:21;18.30;90.00
68139;DHT22;54940;50.842;4.410;2022-09-01T04:32:50;18.30;90.30
68139;DHT22;54940;50.842;4.410;2022-09-01T04:35:16;18.20;90.50
68139;DHT22;54940;50.842;4.410;2022-09-01T04:37:43;18.30;90.30
68139;DHT22;54940;50.842;4.410;2022-09-01T04:40:12;18.30;90.30
68139;DHT22;54940;50.842;4.410;2022-09-01T04:42:38;18.30;90.50
68139;DHT22;54940;50.842;4.410;2022-09-01T04:45:06;18.20;90.20
68139;DHT22;54940;50.842;4.410;2022-09-01T04:47:35;18.20;90.10
68139;DHT22;54940;50.842;4.410;2022-09-01T04:50:07;18.10;90.50
68139;DHT22;54940;50.842;4.410;2022-09-01T04:52:42;18.00;90.50
68139;DHT22;54940;50.842;4.410;2022-09-01T04:55:10;18.10;90.60
68139;DHT22;54940;50.842;4.410;2022-09-01T04:57:45;18.20;90.60
68139;DHT22;54940;50.842;4.410;2022-09-01T05:00:14;18.20;90.50
68139;DHT22;54940;50.842;4.410;2022-09-01T05:02:48;18.20;90.50
68139;DHT22;54940;50.842;4.410;2022-09-01T05:05:16;18.20;90.30
68139;DHT22;54940;50.842;4.410;2022-09-01T05:07:42;18.20;90.50
68139;DHT22;54940;50.842;4.410;2022-09-01T05:10:08;18.20;90.50
68139;DHT22;54940;50.842;4.410;2022-09-01T05:12:34;18.30;90.80
68139;DHT22;54940;50.842;4.410;2022-09-01T05:15:00;18.20;90.50
68139;DHT22;54940;50.842;4.410;2022-09-01T05:17:31;18.30;90.50
68139;DHT22;54940;50.842;4.410;2022-09-01T05:19:57;18.20;90.60
68139;DHT22;54940;50.842;4.410;2022-09-01T05:22:23;18.20;90.30
68139;DHT22;54940;50.842;4.410;2022-09-01T05:24:50;18.30;90.30
68139;DHT22;54940;50.842;4.410;2022-09-01T05:27:18;18.30;90.50
68139;DHT22;54940;50.842;4.410;2022-09-01T05:29:45;18.30;90.50
68139;DHT22;54940;50.842;4.410;2022-09-01T05:32:11;18.30;90.60
68139;DHT22;54940;50.842;4.410;2022-09-01T05:34:38;18.10;90.60
68139;DHT22;54940;50.842;4.410;2022-09-01T05:37:06;18.00;90.60
68139;DHT22;54940;50.842;4.410;2022-09-01T05:39:33;17.90;90.80
68139;DHT22;54940;50.842;4.410;2022-09-01T05:42:01;17.90;90.70
68139;DHT22;54940;50.842;4.410;2022-09-01T05:44:29;17.90;90.50
68139;DHT22;54940;50.842;4.410;2022-09-01T05:46:57;17.70;91.00
68139;DHT22;54940;50.842;4.410;2022-09-01T05:49:25;17.60;91.10
68139;DHT22;54940;50.842;4.410;2022-09-01T05:51:53;17.70;91.60
68139;DHT22;54940;50.842;4.410;2022-09-01T05:54:24;18.10;90.90
68139;DHT22;54940;50.842;4.410;2022-09-01T05:56:52;18.50;90.30
68139;DHT22;54940;50.842;4.410;2022-09-01T05:59:19;18.90;90.00
68139;DHT22;54940;50.842;4.410;2022-09-01T06:01:46;19.30;89.40
68139;DHT22;54940;50.842;4.410;2022-09-01T06:04:12;19.90;88.80
68139;DHT22;54940;50.842;4.410;2022-09-01T06:06:44;20.50;87.10
68139;DHT22;54940;50.842;4.410;2022-09-01T06:09:28;20.80;86.00
68139;DHT22;54940;50.842;4.410;2022-09-01T06:11:54;20.80;83.20
68139;DHT22;54940;50.842;4.410;2022-09-01T06:14:21;20.90;83.40
68139;DHT22;54940;50.842;4.410;2022-09-01T06:16:47;20.90;84.90
68139;DHT22;54940;50.842;4.410;2022-09-01T06:19:13;21.10;84.00
68139;DHT22;54940;50.842;4.410;2022-09-01T06:21:39;21.10;83.00
68139;DHT22;54940;50.842;4.410;2022-09-01T06:24:05;21.30;82.00
68139;DHT22;54940;50.842;4.410;2022-09-01T06:26:34;21.30;83.80
68139;DHT22;54940;50.842;4.410;2022-09-01T06:29:03;21.30;82.60
68139;DHT22;54940;50.842;4.410;2022-09-01T06:31:32;21.30;82.40
68139;DHT22;54940;50.842;4.410;2022-09-01T06:34:02;21.20;82.60
68139;DHT22;54940;50.842;4.410;2022-09-01T06:36:30;21.00;83.00
68139;DHT22;54940;50.842;4.410;2022-09-01T06:39:03;20.90;84.10
68139;DHT22;54940;50.842;4.410;2022-09-01T06:41:29;21.00;82.90
68139;DHT22;54940;50.842;4.410;2022-09-01T06:43:56;20.80;83.60
68139;DHT22;54940;50.842;4.410;2022-09-01T06:46:23;20.90;83.80
68139;DHT22;54940;50.842;4.410;2022-09-01T06:48:54;21.00;84.20
68139;DHT22;54940;50.842;4.410;2022-09-01T06:51:24;21.00;83.70
68139;DHT22;54940;50.842;4.410;2022-09-01T06:53:53;21.00;85.50
68139;DHT22;54940;50.842;4.410;2022-09-01T06:56:26;21.00;83.80
68139;DHT22;54940;50.842;4.410;2022-09-01T06:58:56;21.20;84.10
68139;DHT22;54940;50.842;4.410;2022-09-01T07:01:23;21.20;83.50
68139;DHT22;54940;50.842;4.410;2022-09-01T07:03:53;21.00;84.50
68139;DHT22;54940;50.842;4.410;2022-09-01T07:06:20;21.10;85.60
68139;DHT22;54940;50.842;4.410;2022-09-01T07:08:52;21.40;84.40
68139;DHT22;54940;50.842;4.410;2022-09-01T07:11:23;21.60;83.60
68139;DHT22;54940;50.842;4.410;2022-09-01T07:13:53;21.90;85.10
68139;DHT22;54940;50.842;4.410;2022-09-01T07:16:21;22.00;82.20
68139;DHT22;54940;50.842;4.410;2022-09-01T07:18:49;21.90;83.30
68139;DHT22;54940;50.842;4.410;2022-09-01T07:21:15;22.00;84.00
68139;DHT22;54940;50.842;4.410;2022-09-01T07:23:41;22.20;82.80
68139;DHT22;54940;50.842;4.410;2022-09-01T07:26:10;22.20;82.60
68139;DHT22;54940;50.842;4.410;2022-09-01T07:28:37;22.30;83.40
68139;DHT22;54940;50.842;4.410;2022-09-01T07:31:02;22.50;82.70
68139;DHT22;54940;50.842;4.410;2022-09-01T07:33:30;22.70;81.70
68139;DHT22;54940;50.842;4.410;2022-09-01T07:35:56;22.80;80.80
68139;DHT22;54940;50.842;4.410;2022-09-01T07:38:25;22.80;81.90
68139;DHT22;54940;50.842;4.410;2022-09-01T07:40:53;22.60;82.90
68139;DHT22;54940;50.842;4.410;2022-09-01T07:43:24;22.70;82.90
68139;DHT22;54940;50.842;4.410;2022-09-01T07:45:53;22.90;81.30
68139;DHT22;54940;50.842;4.410;2022-09-01T07:48:21;23.00;81.60
68139;DHT22;54940;50.842;4.410;2022-09-01T07:50:50;23.00;80.10
68139;DHT22;54940;50.842;4.410;2022-09-01T07:53:20;23.00;81.20
68139;DHT22;54940;50.842;4.410;2022-09-01T07:55:49;22.80;82.00
68139;DHT22;54940;50.842;4.410;2022-09-01T07:58:17;22.70;81.00
68139;DHT22;54940;50.842;4.410;2022-09-01T08:00:44;22.80;82.00
68139;DHT22;54940;50.842;4.410;2022-09-01T08:03:15;23.00;83.10
68139;DHT22;54940;50.842;4.410;2022-09-01T08:05:41;23.30;80.90
68139;DHT22;54940;50.842;4.410;2022-09-01T08:08:08;23.40;79.00
68139;DHT22;54940;50.842;4.410;2022-09-01T08:10:38;23.10;80.30
68139;DHT22;54940;50.842;4.410;2022-09-01T08:13:04;23.10;81.60
68139;DHT22;54940;50.842;4.410;2022-09-01T08:15:30;23.30;80.40
68139;DHT22;54940;50.842;4.410;2022-09-01T08:17:57;23.40;80.20
68139;DHT22;54940;50.842;4.410;2022-09-01T08:20:22;23.50;79.70
68139;DHT22;54940;50.842;4.410;2022-09-01T08:22:48;23.30;81.10
68139;DHT22;54940;50.842;4.410;2022-09-01T08:25:14;23.60;81.80
68139;DHT22;54940;50.842;4.410;2022-09-01T08:27:40;24.20;81.10
68139;DHT22;54940;50.842;4.410;2022-09-01T08:30:09;24.50;76.60
68139;DHT22;54940;50.842;4.410;2022-09-01T08:32:36;24.10;79.60
68139;DHT22;54940;50.842;4.410;2022-09-01T08:35:03;24.40;79.10
68139;DHT22;54940;50.842;4.410;2022-09-01T08:37:30;24.60;77.90
68139;DHT22;54940;50.842;4.410;2022-09-01T08:39:57;24.50;79.30
68139;DHT22;54940;50.842;4.410;2022-09-01T08:45:51;24.80;76.40
68139;DHT22;54940;50.842;4.410;2022-09-01T08:48:26;25.00;76.60
68139;DHT22;54940;50.842;4.410;2022-09-01T08:51:05;25.20;75.90
68139;DHT22;54940;50.842;4.410;2022-09-01T08:56:31;25.20;73.30
68139;DHT22;54940;50.842;4.410;2022-09-01T08:58:57;24.70;77.30
68139;DHT22;54940;50.842;4.410;2022-09-01T09:07:16;25.60;78.00
68139;DHT22;54940;50.842;4.410;2022-09-01T09:10:08;25.50;72.40
68139;DHT22;54940;50.842;4.410;2022-09-01T09:17:55;25.50;73.40
68139;DHT22;54940;50.842;4.410;2022-09-01T09:20:26;25.70;73.30
68139;DHT22;54940;50.842;4.410;2022-09-01T09:22:52;26.00;76.60
68139;DHT22;54940;50.842;4.410;2022-09-01T09:25:19;26.20;72.60
68139;DHT22;54940;50.842;4.410;2022-09-01T09:27:47;25.90;71.70
68139;DHT22;54940;50.842;4.410;2022-09-01T09:37:46;26.30;73.40
68139;DHT22;54940;50.842;4.410;2022-09-01T09:40:20;26.50;76.40
68139;DHT22;54940;50.842;4.410;2022-09-01T09:45:25;26.80;68.30
68139;DHT22;54940;50.842;4.410;2022-09-01T09:47:53;26.50;69.80
68139;DHT22;54940;50.842;4.410;2022-09-01T09:50:28;26.60;69.10
68139;DHT22;54940;50.842;4.410;2022-09-01T09:53:14;26.60;70.30
68139;DHT22;54940;50.842;4.410;2022-09-01T09:58:23;26.80;67.70
68139;DHT22;54940;50.842;4.410;2022-09-01T10:01:06;26.40;65.00
68139;DHT22;54940;50.842;4.410;2022-09-01T10:03:35;26.30;67.60
68139;DHT22;54940;50.842;4.410;2022-09-01T10:06:00;26.50;66.60
68139;DHT22;54940;50.842;4.410;2022-09-01T10:10:52;26.80;62.80
68139;DHT22;54940;50.842;4.410;2022-09-01T10:13:23;26.70;62.90
68139;DHT22;54940;50.842;4.410;2022-09-01T10:15:52;26.50;64.80
68139;DHT22;54940;50.842;4.410;2022-09-01T10:18:24;26.60;67.50
68139;DHT22;54940;50.842;4.410;2022-09-01T10:21:03;26.80;65.60
68139;DHT22;54940;50.842;4.410;2022-09-01T10:23:34;27.00;68.30
68139;DHT22;54940;50.842;4.410;2022-09-01T10:28:56;26.90;66.10
68139;DHT22;54940;50.842;4.410;2022-09-01T10:31:24;27.20;66.10
68139;DHT22;54940;50.842;4.410;2022-09-01T10:33:50;27.40;60.00
68139;DHT22;54940;50.842;4.410;2022-09-01T10:36:16;27.40;62.50
68139;DHT22;54940;50.842;4.410;2022-09-01T10:38:44;27.20;61.30
68139;DHT22;54940;50.842;4.410;2022-09-01T10:44:25;26.50;62.40
68139;DHT22;54940;50.842;4.410;2022-09-01T10:46:55;26.80;66.70
68139;DHT22;54940;50.842;4.410;2022-09-01T10:51:55;27.10;61.80
68139;DHT22;54940;50.842;4.410;2022-09-01T11:06:05;27.70;65.30
68139;DHT22;54940;50.842;4.410;2022-09-01T11:13:42;28.40;58.90
68139;DHT22;54940;50.842;4.410;2022-09-01T11:16:32;28.10;57.50
68139;DHT22;54940;50.842;4.410;2022-09-01T11:19:28;27.90;58.20
68139;DHT22;54940;50.842;4.410;2022-09-01T11:24:51;27.80;56.30
68139;DHT22;54940;50.842;4.410;2022-09-01T11:33:10;27.90;60.90
68139;DHT22;54940;50.842;4.410;2022-09-01T11:35:37;28.00;59.30
68139;DHT22;54940;50.842;4.410;2022-09-01T11:38:05;28.10;57.80
68139;DHT22;54940;50.842;4.410;2022-09-01T11:40:34;28.60;62.60
68139;DHT22;54940;50.842;4.410;2022-09-01T11:43:06;29.10;60.00
68139;DHT22;54940;50.842;4.410;2022-09-01T11:45:36;29.00;55.60
68139;DHT22;54940;50.842;4.410;2022-09-01T11:48:09;28.70;57.30
68139;DHT22;54940;50.842;4.410;2022-09-01T11:50:40;29.00;60.00
68139;DHT22;54940;50.842;4.410;2022-09-01T11:53:21;28.70;54.70
68139;DHT22;54940;50.842;4.410;2022-09-01T11:55:50;28.50;61.60
68139;DHT22;54940;50.842;4.410;2022-09-01T12:00:52;28.40;55.50
68139;DHT22;54940;50.842;4.410;2022-09-01T12:03:24;28.40;60.10
68139;DHT22;54940;50.842;4.410;2022-09-01T12:06:12;28.60;58.10
68139;DHT22;54940;50.842;4.410;2022-09-01T12:08:57;29.40;58.90
68139;DHT22;54940;50.842;4.410;2022-09-01T12:11:29;30.00;55.10
68139;DHT22;54940;50.842;4.410;2022-09-01T12:14:08;30.20;57.30
68139;DHT22;54940;50.842;4.410;2022-09-01T12:16:35;30.30;53.50
68139;DHT22;54940;50.842;4.410;2022-09-01T12:19:05;30.30;55.00
68139;DHT22;54940;50.842;4.410;2022-09-01T12:21:37;30.60;55.50
68139;DHT22;54940;50.842;4.410;2022-09-01T12:24:20;31.20;51.90
68139;DHT22;54940;50.842;4.410;2022-09-01T12:26:48;31.30;55.60
68139;DHT22;54940;50.842;4.410;2022-09-01T12:29:16;31.40;51.70
68139;DHT22;54940;50.842;4.410;2022-09-01T12:31:45;31.90;52.60
68139;DHT22;54940;50.842;4.410;2022-09-01T12:39:45;31.50;53.00
68139;DHT22;54940;50.842;4.410;2022-09-01T12:42:32;32.00;54.90
68139;DHT22;54940;50.842;4.410;2022-09-01T12:45:06;32.80;50.50
68139;DHT22;54940;50.842;4.410;2022-09-01T12:55:20;33.40;48.20
68139;DHT22;54940;50.842;4.410;2022-09-01T12:57:49;33.20;51.20
68139;DHT22;54940;50.842;4.410;2022-09-01T13:00:52;33.20;49.20
68139;DHT22;54940;50.842;4.410;2022-09-01T13:03:14;33.10;50.20
68139;DHT22;54940;50.842;4.410;2022-09-01T13:05:44;33.00;51.40
68139;DHT22;54940;50.842;4.410;2022-09-01T13:08:17;32.70;49.60
68139;DHT22;54940;50.842;4.410;2022-09-01T13:10:46;32.10;50.90
68139;DHT22;54940;50.842;4.410;2022-09-01T13:13:13;31.60;50.30
68139;DHT22;54940;50.842;4.410;2022-09-01T13:15:43;31.50;51.50
68139;DHT22;54940;50.842;4.410;2022-09-01T13:18:12;31.40;53.80
68139;DHT22;54940;50.842;4.410;2022-09-01T13:20:38;30.80;53.80
68139;DHT22;54940;50.842;4.410;2022-09-01T13:23:04;30.30;51.70
68139;DHT22;54940;50.842;4.410;2022-09-01T13:25:29;30.10;54.40
68139;DHT22;54940;50.842;4.410;2022-09-01T13:27:55;29.90;55.40
68139;DHT22;54940;50.842;4.410;2022-09-01T13:30:23;29.90;54.10
68139;DHT22;54940;50.842;4.410;2022-09-01T13:32:51;30.50;54.30
68139;DHT22;54940;50.842;4.410;2022-09-01T13:35:19;31.00;53.80
68139;DHT22;54940;50.842;4.410;2022-09-01T13:37:46;31.20;52.10
68139;DHT22;54940;50.842;4.410;2022-09-01T13:40:12;31.50;52.20
68139;DHT22;54940;50.842;4.410;2022-09-01T13:42:46;31.20;49.30
68139;DHT22;54940;50.842;4.410;2022-09-01T13:45:13;30.90;50.20
68139;DHT22;54940;50.842;4.410;2022-09-01T13:47:42;31.10;52.20
68139;DHT22;54940;50.842;4.410;2022-09-01T13:50:09;31.10;51.70
68139;DHT22;54940;50.842;4.410;2022-09-01T13:52:42;30.90;52.80
68139;DHT22;54940;50.842;4.410;2022-09-01T13:55:14;30.40;50.00
68139;DHT22;54940;50.842;4.410;2022-09-01T13:57:40;29.90;51.40
68139;DHT22;54940;50.842;4.410;2022-09-01T14:00:09;29.90;55.00
68139;DHT22;54940;50.842;4.410;2022-09-01T14:02:38;29.90;54.60
68139;DHT22;54940;50.842;4.410;2022-09-01T14:05:04;29.80;52.00
68139;DHT22;54940;50.842;4.410;2022-09-01T14:07:30;29.40;52.70
68139;DHT22;54940;50.842;4.410;2022-09-01T14:09:56;29.10;52.00
68139;DHT22;54940;50.842;4.410;2022-09-01T14:12:22;28.70;54.00
68139;DHT22;54940;50.842;4.410;2022-09-01T14:14:49;28.60;54.70
68139;DHT22;54940;50.842;4.410;2022-09-01T14:17:15;28.70;56.60
68139;DHT22;54940;50.842;4.410;2022-09-01T14:19:40;28.60;54.10
68139;DHT22;54940;50.842;4.410;2022-09-01T14:22:07;28.40;54.60
68139;DHT22;54940;50.842;4.410;2022-09-01T14:24:36;28.40;56.20
68139;DHT22;54940;50.842;4.410;2022-09-01T14:27:03;28.50;54.40
68139;DHT22;54940;50.842;4.410;2022-09-01T14:29:28;28.50;55.60
68139;DHT22;54940;50.842;4.410;2022-09-01T14:31:54;28.40;56.70
68139;DHT22;54940;50.842;4.410;2022-09-01T14:34:22;28.30;57.60
68139;DHT22;54940;50.842;4.410;2022-09-01T14:36:49;28.10;55.20
68139;DHT22;54940;50.842;4.410;2022-09-01T14:39:17;27.80;55.00
68139;DHT22;54940;50.842;4.410;2022-09-01T14:41:42;28.00;57.00
68139;DHT22;54940;50.842;4.410;2022-09-01T14:44:08;27.90;55.90
68139;DHT22;54940;50.842;4.410;2022-09-01T14:46:33;28.00;55.20
68139;DHT22;54940;50.842;4.410;2022-09-01T14:49:01;28.10;53.40
68139;DHT22;54940;50.842;4.410;2022-09-01T14:51:28;28.00;53.30
68139;DHT22;54940;50.842;4.410;2022-09-01T14:53:55;27.90;55.60
68139;DHT22;54940;50.842;4.410;2022-09-01T14:56:21;27.60;53.10
68139;DHT22;54940;50.842;4.410;2022-09-01T14:58:49;27.60;56.40
68139;DHT22;54940;50.842;4.410;2022-09-01T15:01:17;27.90;57.50
68139;DHT22;54940;50.842;4.410;2022-09-01T15:03:45;28.10;54.60
68139;DHT22;54940;50.842;4.410;2022-09-01T15:06:14;28.60;55.50
68139;DHT22;54940;50.842;4.410;2022-09-01T15:08:41;28.90;52.00
68139;DHT22;54940;50.842;4.410;2022-09-01T15:11:12;29.30;51.80
68139;DHT22;54940;50.842;4.410;2022-09-01T15:13:39;29.40;53.60
68139;DHT22;54940;50.842;4.410;2022-09-01T15:16:11;30.00;50.00
68139;DHT22;54940;50.842;4.410;2022-09-01T15:18:36;29.70;51.20
68139;DHT22;54940;50.842;4.410;2022-09-01T15:21:03;29.30;51.10
68139;DHT22;54940;50.842;4.410;2022-09-01T15:23:29;29.00;50.10
68139;DHT22;54940;50.842;4.410;2022-09-01T15:25:55;28.70;51.90
68139;DHT22;54940;50.842;4.410;2022-09-01T15:28:23;28.50;52.60
68139;DHT22;54940;50.842;4.410;2022-09-01T15:30:49;28.50;52.10
68139;DHT22;54940;50.842;4.410;2022-09-01T15:33:15;28.10;52.90
68139;DHT22;54940;50.842;4.410;2022-09-01T15:35:41;28.20;55.60
68139;DHT22;54940;50.842;4.410;2022-09-01T15:38:07;27.80;52.70
68139;DHT22;54940;50.842;4.410;2022-09-01T15:40:33;27.60;52.00
68139;DHT22;54940;50.842;4.410;2022-09-01T15:42:59;27.50;54.50
68139;DHT22;54940;50.842;4.410;2022-09-01T15:45:26;27.30;53.80
68139;DHT22;54940;50.842;4.410;2022-09-01T15:47:53;27.20;55.60
68139;DHT22;54940;50.842;4.410;2022-09-01T15:50:21;27.10;54.10
68139;DHT22;54940;50.842;4.410;2022-09-01T15:52:55;26.90;55.30
68139;DHT22;54940;50.842;4.410;2022-09-01T15:55:38;26.80;55.80
68139;DHT22;54940;50.842;4.410;2022-09-01T15:58:09;26.80;53.90
68139;DHT22;54940;50.842;4.410;2022-09-01T16:00:35;26.80;53.50
68139;DHT22;54940;50.842;4.410;2022-09-01T16:03:00;26.70;52.20
68139;DHT22;54940;50.842;4.410;2022-09-01T16:05:28;26.50;54.40
68139;DHT22;54940;50.842;4.410;2022-09-01T16:07:54;26.50;52.70
68139;DHT22;54940;50.842;4.410;2022-09-01T16:10:20;26.40;53.60
68139;DHT22;54940;50.842;4.410;2022-09-01T16:12:47;26.30;54.20
68139;DHT22;54940;50.842;4.410;2022-09-01T16:15:16;26.20;55.80
68139;DHT22;54940;50.842;4.410;2022-09-01T16:18:05;26.00;55.40
68139;DHT22;54940;50.842;4.410;2022-09-01T16:20:40;26.00;56.60
68139;DHT22;54940;50.842;4.410;2022-09-01T16:23:16;26.00;54.70
68139;DHT22;54940;50.842;4.410;2022-09-01T16:25:42;25.90;53.50
68139;DHT22;54940;50.842;4.410;2022-09-01T16:28:27;26.00;53.50
68139;DHT22;54940;50.842;4.410;2022-09-01T16:31:08;26.00;56.40
68139;DHT22;54940;50.842;4.410;2022-09-01T16:33:35;25.80;55.60
68139;DHT22;54940;50.842;4.410;2022-09-01T16:36:15;25.90;56.20
68139;DHT22;54940;50.842;4.410;2022-09-01T16:38:52;25.70;57.20
68139;DHT22;54940;50.842;4.410;2022-09-01T16:47:30;25.70;60.10
68139;DHT22;54940;50.842;4.410;2022-09-01T16:50:07;25.60;58.00
68139;DHT22;54940;50.842;4.410;2022-09-01T16:58:08;25.30;57.50
68139;DHT22;54940;50.842;4.410;2022-09-01T17:03:23;25.20;59.00
68139;DHT22;54940;50.842;4.410;2022-09-01T17:08:53;25.10;58.70
68139;DHT22;54940;50.842;4.410;2022-09-01T17:11:45;25.10;57.90
68139;DHT22;54940;50.842;4.410;2022-09-01T17:14:16;25.10;56.90
68139;DHT22;54940;50.842;4.410;2022-09-01T17:16:47;25.10;58.30
68139;DHT22;54940;50.842;4.410;2022-09-01T17:19:18;25.10;59.10
68139;DHT22;54940;50.842;4.410;2022-09-01T17:21:49;25.20;59.20
68139;DHT22;54940;50.842;4.410;2022-09-01T17:27:25;25.00;57.10
68139;DHT22;54940;50.842;4.410;2022-09-01T17:29:54;24.70;58.40